Time;durP1;ratioP1;P1;durP2;ratioP2;P2;SDS_P1;SDS_P2;PMS_P1;PMS_P2;Temp;Humidity;BMP_temperature;BMP_pressure;BME280_temperature;BME280_humidity;BME280_pressure;Samples;Min_cycle;Max_cycle;Signal;HPM_P1;HPM_P2
2022/01/21 00:01:52;;;;;;;7.93;3.00;;;1.10;99.90;;;;;;4915189;29;20695;-75
2022/01/21 00:04:17;;;;;;;5.07;2.47;;;1.00;99.90;;;;;;4914912;29;20659;-75
2022/01/21 00:06:43;;;;;;;5.47;2.57;;;1.00;99.90;;;;;;4914433;29;20213;-76
2022/01/21 00:09:09;;;;;;;6.00;2.57;;;1.00;99.90;;;;;;4915120;29;20175;-75
2022/01/21 00:11:36;;;;;;;13.60;2.70;;;0.90;99.90;;;;;;4915045;29;20211;-75
2022/01/21 00:14:02;;;;;;;6.03;1.63;;;0.90;99.90;;;;;;4914589;29;20417;-76
2022/01/21 00:16:29;;;;;;;5.43;2.10;;;0.90;99.90;;;;;;4914746;29;20393;-73
2022/01/21 00:19:03;;;;;;;6.23;2.30;;;0.90;99.90;;;;;;4914708;29;20424;-76
2022/01/21 00:32:27;;;;;;;6.53;1.97;;;0.90;99.90;;;;;;4914500;29;20460;-73
2022/01/21 00:34:53;;;;;;;5.97;1.90;;;0.90;99.90;;;;;;4914123;29;20381;-75
2022/01/21 00:37:18;;;;;;;3.33;1.73;;;1.00;99.90;;;;;;4914990;29;20181;-75
2022/01/21 00:39:51;;;;;;;9.20;2.83;;;1.00;99.90;;;;;;4914194;29;20644;-75
2022/01/21 00:44:49;;;;;;;10.03;2.53;;;1.00;99.90;;;;;;4913879;29;20416;-75
2022/01/21 00:47:15;;;;;;;6.93;2.00;;;1.10;99.90;;;;;;4914731;29;20415;-75
2022/01/21 00:49:41;;;;;;;7.67;1.63;;;1.10;99.90;;;;;;4914259;29;20471;-76
2022/01/21 00:52:06;;;;;;;3.13;2.00;;;1.20;99.90;;;;;;4914046;29;20438;-75
2022/01/21 05:32:16;;;;;;;10.57;3.47;;;0.70;99.90;;;;;;5330898;23;20502;-69
2022/01/21 05:34:42;;;;;;;12.23;3.10;;;0.70;99.90;;;;;;4984143;28;20917;-69
2022/01/21 05:37:08;;;;;;;8.00;2.50;;;0.80;99.90;;;;;;4992310;28;20248;-69
2022/01/21 05:39:36;;;;;;;10.77;3.30;;;0.70;99.90;;;;;;4991238;28;20218;-69
2022/01/21 05:42:04;;;;;;;7.27;3.57;;;0.70;99.90;;;;;;4977695;28;20782;-69
2022/01/21 05:46:57;;;;;;;4.63;2.80;;;0.90;99.90;;;;;;4973083;28;20380;-69
2022/01/21 05:49:24;;;;;;;16.43;3.70;;;0.80;99.90;;;;;;4972715;28;20648;-69
2022/01/21 05:51:52;;;;;;;10.23;4.73;;;0.90;99.90;;;;;;4972933;28;20454;-69
2022/01/21 05:54:24;;;;;;;5.23;2.37;;;0.80;99.90;;;;;;4972264;28;20506;-69
2022/01/21 05:56:50;;;;;;;7.67;3.23;;;0.80;99.90;;;;;;4972810;28;20816;-69
2022/01/21 05:59:15;;;;;;;9.33;2.77;;;0.80;99.90;;;;;;4972540;28;20412;-69
2022/01/21 06:01:41;;;;;;;11.30;3.50;;;0.80;99.90;;;;;;4971641;28;20206;-69
2022/01/21 06:04:07;;;;;;;13.80;3.30;;;0.80;99.90;;;;;;4972504;28;20214;-69
2022/01/21 06:06:33;;;;;;;12.10;4.33;;;0.90;99.90;;;;;;4971525;28;20714;-69
2022/01/21 06:08:58;;;;;;;8.27;3.03;;;0.80;99.90;;;;;;4972100;28;20183;-69
2022/01/21 06:11:24;;;;;;;8.00;3.67;;;0.90;99.90;;;;;;4972578;28;20211;-69
2022/01/21 06:13:50;;;;;;;8.37;3.03;;;0.90;99.90;;;;;;4972572;28;20687;-69
2022/01/21 06:16:17;;;;;;;7.37;3.10;;;0.90;99.90;;;;;;4975416;28;20344;-70
2022/01/21 06:18:44;;;;;;;7.77;3.10;;;0.90;99.90;;;;;;4976338;28;20490;-70
2022/01/21 06:21:09;;;;;;;4.87;2.80;;;1.00;99.90;;;;;;4975614;28;20936;-71
2022/01/21 06:23:35;;;;;;;14.07;4.10;;;0.90;99.90;;;;;;4974656;28;20478;-71
2022/01/21 06:26:00;;;;;;;9.53;4.30;;;1.00;99.90;;;;;;4975798;28;20184;-71
2022/01/21 06:28:26;;;;;;;9.40;3.63;;;1.00;99.90;;;;;;4976008;28;20231;-73
2022/01/21 06:30:52;;;;;;;10.17;3.43;;;1.00;99.90;;;;;;4966831;28;20248;-73
2022/01/21 06:33:20;;;;;;;5.93;3.20;;;1.00;99.90;;;;;;4975689;28;20213;-73
2022/01/21 06:35:50;;;;;;;13.43;4.40;;;1.00;99.90;;;;;;4974344;28;20552;-73
2022/01/21 06:38:16;;;;;;;11.63;3.67;;;1.00;99.90;;;;;;4975605;28;20844;-73
2022/01/21 06:40:42;;;;;;;7.90;3.20;;;1.00;99.90;;;;;;4975571;28;20469;-72
2022/01/21 06:43:08;;;;;;;14.07;2.77;;;1.00;99.90;;;;;;4974898;28;20887;-72
2022/01/21 06:45:33;;;;;;;5.17;3.10;;;1.00;99.90;;;;;;4975691;28;20226;-73
2022/01/21 06:47:59;;;;;;;9.53;3.07;;;1.00;99.90;;;;;;4975433;28;20637;-73
2022/01/21 06:50:29;;;;;;;6.93;2.70;;;1.00;99.90;;;;;;4975138;28;20211;-73
2022/01/21 06:52:55;;;;;;;10.77;3.07;;;1.00;99.90;;;;;;4975122;28;20252;-73
2022/01/21 06:55:21;;;;;;;12.73;4.03;;;1.00;99.90;;;;;;4973950;28;20434;-73
2022/01/21 06:57:47;;;;;;;8.80;3.87;;;1.00;99.90;;;;;;4975197;28;20205;-73
2022/01/21 07:00:18;;;;;;;11.03;3.77;;;1.00;99.90;;;;;;4975370;28;20534;-73
2022/01/21 07:02:44;;;;;;;10.73;3.23;;;1.00;99.90;;;;;;4975140;28;20263;-73
2022/01/21 07:05:10;;;;;;;6.57;3.30;;;1.00;99.90;;;;;;4974874;28;20458;-73
2022/01/21 07:07:36;;;;;;;14.00;4.03;;;1.00;99.90;;;;;;4975055;28;20395;-73
2022/01/21 07:10:06;;;;;;;11.30;4.13;;;1.00;99.90;;;;;;4974226;28;20181;-73
2022/01/21 07:12:32;;;;;;;9.83;3.53;;;1.00;99.90;;;;;;4975093;28;20441;-73
2022/01/21 07:14:58;;;;;;;7.03;3.40;;;1.00;99.90;;;;;;4977496;28;20476;-73
2022/01/21 07:17:24;;;;;;;12.20;5.00;;;1.10;99.90;;;;;;4975475;28;20438;-74
2022/01/21 07:19:50;;;;;;;13.07;4.53;;;1.00;99.90;;;;;;4974903;28;20652;-74
2022/01/21 07:22:15;;;;;;;6.70;3.80;;;1.00;99.90;;;;;;4974620;28;20197;-74
2022/01/21 07:24:41;;;;;;;10.47;3.67;;;1.10;99.90;;;;;;4973526;28;20637;-73
2022/01/21 07:27:07;;;;;;;6.13;3.33;;;1.20;99.90;;;;;;4973798;28;20212;-74
2022/01/21 07:29:33;;;;;;;12.20;5.70;;;1.10;99.90;;;;;;4974756;28;20182;-74
2022/01/21 07:31:58;;;;;;;13.73;4.63;;;1.10;99.90;;;;;;4973231;28;20587;-74
2022/01/21 07:34:25;;;;;;;13.73;4.07;;;1.10;99.90;;;;;;4974249;28;20479;-74
2022/01/21 07:36:53;;;;;;;20.27;4.50;;;1.10;99.90;;;;;;4973404;28;20223;-73
2022/01/21 07:39:19;;;;;;;11.53;4.07;;;1.20;99.90;;;;;;4974550;28;20417;-73
2022/01/21 07:41:44;;;;;;;11.50;4.57;;;1.10;99.90;;;;;;4974381;28;20414;-73
2022/01/21 07:44:12;;;;;;;10.57;3.80;;;1.10;99.90;;;;;;4974022;28;20518;-73
2022/01/21 07:46:38;;;;;;;8.00;4.00;;;1.10;99.90;;;;;;4974617;28;20634;-73
2022/01/21 07:49:04;;;;;;;10.63;5.23;;;1.20;99.90;;;;;;4974182;28;20401;-73
2022/01/21 07:51:30;;;;;;;6.80;3.67;;;1.20;99.90;;;;;;4974090;28;20517;-73
2022/01/21 07:53:55;;;;;;;8.80;4.50;;;1.20;99.90;;;;;;4974587;28;20191;-74
2022/01/21 07:56:21;;;;;;;9.57;3.90;;;1.20;99.90;;;;;;4973914;28;20564;-74
2022/01/21 07:58:46;;;;;;;10.60;3.80;;;1.30;99.90;;;;;;4974320;28;20182;-73
2022/01/21 08:01:12;;;;;;;13.70;4.20;;;1.40;99.90;;;;;;4973990;28;20196;-73
2022/01/21 08:03:38;;;;;;;10.00;4.73;;;1.40;99.90;;;;;;4974052;28;20226;-74
2022/01/21 08:06:04;;;;;;;11.93;5.10;;;1.40;99.90;;;;;;4973767;28;20205;-73
2022/01/21 08:08:30;;;;;;;12.10;5.10;;;1.50;99.90;;;;;;4973856;28;20188;-73
2022/01/21 08:10:56;;;;;;;23.47;6.30;;;1.60;99.90;;;;;;4973304;28;20960;-74
2022/01/21 08:13:22;;;;;;;5.93;3.90;;;1.60;99.90;;;;;;4973428;28;20316;-73
2022/01/21 08:15:48;;;;;;;9.97;4.93;;;1.60;99.90;;;;;;4973655;28;20184;-73
2022/01/21 08:18:15;;;;;;;10.30;4.37;;;1.60;99.90;;;;;;4973709;28;20425;-74
2022/01/21 08:20:42;;;;;;;12.70;4.80;;;1.70;99.90;;;;;;4974036;28;20576;-73
2022/01/21 08:23:08;;;;;;;16.53;3.07;;;1.70;99.90;;;;;;4973584;28;20761;-73
2022/01/21 08:25:34;;;;;;;6.33;4.57;;;1.70;99.90;;;;;;4973860;28;20481;-73
2022/01/21 08:27:59;;;;;;;16.87;4.30;;;1.70;99.90;;;;;;4974533;28;20511;-73
2022/01/21 08:30:25;;;;;;;23.17;4.87;;;1.70;99.90;;;;;;4974554;28;20278;-74
2022/01/21 08:32:51;;;;;;;11.60;4.13;;;1.70;99.90;;;;;;4974967;28;20573;-73
2022/01/21 08:35:16;;;;;;;12.27;4.60;;;1.80;99.90;;;;;;4974672;28;20263;-73
2022/01/21 08:37:42;;;;;;;7.57;4.73;;;1.80;99.90;;;;;;4974319;28;20189;-73
2022/01/21 08:40:08;;;;;;;6.53;4.03;;;1.80;99.90;;;;;;4974219;28;20554;-73
2022/01/21 08:42:34;;;;;;;7.60;4.47;;;1.80;99.90;;;;;;4974663;28;20206;-73
2022/01/21 08:45:00;;;;;;;7.13;4.60;;;1.80;99.90;;;;;;4974678;28;20408;-73
2022/01/21 08:47:26;;;;;;;13.97;4.30;;;1.80;99.90;;;;;;4974802;28;20185;-73
2022/01/21 08:49:53;;;;;;;10.83;5.10;;;1.80;99.90;;;;;;4974044;28;20232;-73
2022/01/21 08:52:20;;;;;;;10.30;4.67;;;1.80;99.90;;;;;;4973642;28;20199;-73
2022/01/21 08:54:47;;;;;;;10.17;6.40;;;1.80;99.90;;;;;;4973229;28;20420;-73
2022/01/21 08:57:14;;;;;;;4.53;3.93;;;1.90;99.90;;;;;;4973194;28;20419;-73
2022/01/21 08:59:39;;;;;;;9.13;4.93;;;1.90;99.90;;;;;;4973429;28;20418;-73
2022/01/21 09:02:05;;;;;;;9.40;4.70;;;1.90;99.90;;;;;;4973334;28;20416;-73
2022/01/21 09:04:32;;;;;;;10.90;5.03;;;2.00;99.90;;;;;;4973361;28;20180;-73
2022/01/21 09:06:58;;;;;;;17.60;6.00;;;2.00;99.90;;;;;;4973382;28;20189;-73
2022/01/21 09:09:24;;;;;;;21.97;6.70;;;2.00;99.90;;;;;;4973158;28;20400;-73
2022/01/21 09:11:52;;;;;;;14.53;4.80;;;2.10;99.90;;;;;;4973142;28;20484;-73
2022/01/21 09:14:19;;;;;;;8.93;5.30;;;2.10;99.90;;;;;;4960460;28;20405;-74
2022/01/21 09:16:44;;;;;;;11.50;4.30;;;2.10;99.90;;;;;;4966818;28;20837;-73
2022/01/21 09:19:10;;;;;;;15.63;5.80;;;2.20;99.90;;;;;;4953860;28;20474;-73
2022/01/21 09:21:38;;;;;;;11.63;5.60;;;2.10;99.90;;;;;;4953696;28;20304;-73
2022/01/21 09:24:05;;;;;;;12.00;4.90;;;2.20;99.90;;;;;;4953881;28;20391;-73
2022/01/21 09:26:31;;;;;;;10.00;5.50;;;2.20;99.90;;;;;;4953944;28;20408;-73
2022/01/21 09:28:59;;;;;;;12.87;5.40;;;2.20;99.90;;;;;;4953880;28;20395;-73
2022/01/21 09:31:25;;;;;;;10.17;5.13;;;2.20;99.90;;;;;;4953608;28;21066;-73
2022/01/21 09:33:51;;;;;;;17.00;6.60;;;2.30;99.90;;;;;;4953960;28;20399;-73
2022/01/21 09:36:19;;;;;;;13.10;5.10;;;2.30;99.90;;;;;;4953064;29;20957;-73
2022/01/21 09:38:45;;;;;;;14.77;4.63;;;2.40;99.90;;;;;;4954569;28;20444;-73
2022/01/21 09:41:11;;;;;;;10.67;4.77;;;2.40;99.90;;;;;;4954593;28;20438;-73
2022/01/21 09:43:39;;;;;;;13.93;5.20;;;2.50;99.90;;;;;;4954530;28;20901;-73
2022/01/21 09:46:07;;;;;;;17.23;5.87;;;2.60;99.90;;;;;;4960083;28;20477;-73
2022/01/21 09:48:49;;;;;;;11.37;5.60;;;2.70;99.90;;;;;;4972837;28;20492;-73
2022/01/21 09:51:16;;;;;;;11.17;5.10;;;2.70;99.90;;;;;;4957467;28;20451;-73
2022/01/21 09:53:42;;;;;;;15.70;5.83;;;2.70;99.90;;;;;;4958079;28;20432;-73
2022/01/21 09:56:09;;;;;;;12.67;5.67;;;2.80;99.90;;;;;;4957883;28;20399;-73
2022/01/21 09:58:35;;;;;;;11.90;4.70;;;2.70;99.90;;;;;;4957947;28;20965;-72
2022/01/21 10:01:05;;;;;;;13.43;4.83;;;2.70;99.90;;;;;;4957797;28;20525;-73
2022/01/21 10:03:32;;;;;;;12.37;3.97;;;2.80;99.90;;;;;;4957892;28;20498;-73
2022/01/21 10:05:58;;;;;;;11.17;5.20;;;2.80;99.90;;;;;;4957486;28;20398;-73
2022/01/21 10:08:24;;;;;;;10.57;4.83;;;2.90;99.90;;;;;;4956984;28;20429;-73
2022/01/21 10:10:50;;;;;;;7.37;4.30;;;2.90;99.90;;;;;;4957268;28;20283;-73
2022/01/21 10:13:19;;;;;;;10.43;4.50;;;3.10;99.90;;;;;;4956800;28;20468;-73
2022/01/21 10:15:46;;;;;;;10.07;4.33;;;3.10;99.90;;;;;;4956961;28;20499;-73
2022/01/21 10:18:13;;;;;;;17.83;4.87;;;3.10;99.90;;;;;;4957050;28;20395;-73
2022/01/21 10:21:07;;;;;;;12.90;4.50;;;3.20;99.90;;;;;;4956888;28;20885;-73
2022/01/21 10:23:38;;;;;;;14.20;4.53;;;3.10;99.90;;;;;;4956769;28;20523;-73
2022/01/21 10:26:08;;;;;;;23.90;7.73;;;3.00;99.90;;;;;;4956902;28;20859;-73
2022/01/21 10:28:35;;;;;;;11.13;4.13;;;3.00;99.90;;;;;;4957082;28;20448;-73
2022/01/21 10:31:14;;;;;;;14.03;4.90;;;2.90;99.90;;;;;;4956285;28;20585;-73
2022/01/21 10:33:43;;;;;;;11.20;4.43;;;2.80;99.90;;;;;;4956852;28;20971;-73
2022/01/21 10:36:26;;;;;;;7.30;3.40;;;2.90;99.90;;;;;;4955191;28;20896;-73
2022/01/21 10:38:58;;;;;;;11.63;4.23;;;2.90;99.90;;;;;;4956605;28;20935;-73
2022/01/21 10:41:31;;;;;;;8.27;4.13;;;3.00;99.90;;;;;;4956127;28;20417;-73
2022/01/21 10:44:07;;;;;;;8.60;4.10;;;3.10;99.90;;;;;;4956448;28;20451;-73
2022/01/21 10:46:33;;;;;;;6.57;3.00;;;3.20;99.90;;;;;;4956452;28;20768;-73
2022/01/21 10:49:08;;;;;;;9.17;3.83;;;3.20;99.90;;;;;;4956807;29;20434;-73
2022/01/21 10:51:37;;;;;;;7.73;3.50;;;3.30;99.90;;;;;;4956319;28;20275;-73
2022/01/21 10:54:17;;;;;;;7.47;3.27;;;3.40;99.90;;;;;;4956411;28;20450;-72
2022/01/21 10:57:12;;;;;;;10.97;3.30;;;3.50;99.90;;;;;;4956865;28;20503;-73
2022/01/21 10:59:58;;;;;;;11.83;3.90;;;3.50;99.90;;;;;;4956803;28;20500;-73
2022/01/21 11:02:46;;;;;;;13.47;4.40;;;3.60;99.90;;;;;;4955644;28;20418;-73
2022/01/21 11:05:31;;;;;;;13.40;4.40;;;3.60;99.90;;;;;;4956214;28;20490;-73
2022/01/21 11:08:05;;;;;;;13.53;4.53;;;3.70;99.90;;;;;;4956092;28;20418;-73
2022/01/21 11:10:40;;;;;;;8.70;3.00;;;3.90;99.90;;;;;;4955548;28;20505;-73
2022/01/21 11:13:16;;;;;;;15.43;3.70;;;3.80;99.90;;;;;;4955751;28;20722;-72
2022/01/21 11:15:46;;;;;;;19.70;4.20;;;3.80;99.90;;;;;;4955596;28;20425;-73
2022/01/21 11:18:15;;;;;;;9.27;4.47;;;3.80;99.90;;;;;;4955574;28;20398;-72
2022/01/21 11:20:45;;;;;;;4.57;3.20;;;3.80;99.90;;;;;;4955528;28;20499;-73
2022/01/21 11:23:11;;;;;;;18.20;3.87;;;3.80;99.90;;;;;;4955552;28;20425;-73
2022/01/21 11:25:45;;;;;;;8.23;3.10;;;3.80;99.90;;;;;;4954395;28;20429;-73
2022/01/21 11:28:12;;;;;;;9.00;3.20;;;3.70;99.90;;;;;;4956707;28;20436;-73
2022/01/21 11:30:38;;;;;;;6.07;2.77;;;3.70;99.90;;;;;;4955216;28;20480;-73
2022/01/21 11:33:04;;;;;;;6.33;3.53;;;3.80;99.90;;;;;;4955327;28;20445;-73
2022/01/21 11:35:31;;;;;;;7.50;2.87;;;3.80;99.90;;;;;;4955248;28;20405;-73
2022/01/21 11:37:58;;;;;;;5.27;3.50;;;3.80;99.90;;;;;;4955359;28;20432;-73
2022/01/21 11:40:25;;;;;;;6.47;2.80;;;3.80;99.90;;;;;;4955021;28;20829;-73
2022/01/21 11:42:51;;;;;;;9.80;3.17;;;3.70;99.90;;;;;;4955081;28;20403;-73
2022/01/21 11:46:16;;;;;;;11.50;3.93;;;3.80;99.90;;;;;;4954850;28;20407;-73
2022/01/21 11:50:38;;;;;;;5.67;2.83;;;3.60;99.90;;;;;;4954903;28;20992;-73
2022/01/21 11:53:07;;;;;;;12.00;4.00;;;3.70;99.90;;;;;;4954774;28;20409;-73
2022/01/21 11:55:39;;;;;;;13.33;5.70;;;3.70;99.90;;;;;;4954952;28;20914;-73
2022/01/21 11:58:16;;;;;;;12.07;3.37;;;3.70;99.90;;;;;;4954903;28;20498;-73
2022/01/21 12:00:43;;;;;;;12.33;3.57;;;3.70;99.90;;;;;;4954655;28;20419;-73
2022/01/21 12:03:09;;;;;;;6.47;2.20;;;3.80;99.90;;;;;;4954810;28;20424;-73
2022/01/21 12:05:35;;;;;;;8.90;2.70;;;3.80;99.90;;;;;;4954890;28;20464;-73
2022/01/21 12:08:05;;;;;;;5.50;2.70;;;3.70;99.90;;;;;;4954855;28;20430;-73
2022/01/21 12:10:35;;;;;;;7.80;2.53;;;3.70;99.90;;;;;;4953224;28;20868;-73
2022/01/21 12:13:03;;;;;;;7.23;2.43;;;3.70;99.90;;;;;;4954381;28;20533;-73
2022/01/21 12:20:50;;;;;;;9.07;2.63;;;3.60;99.90;;;;;;4954666;28;20436;-73
2022/01/21 12:23:21;;;;;;;12.37;2.70;;;3.70;99.90;;;;;;4954341;28;20412;-72
2022/01/21 12:26:09;;;;;;;4.70;2.50;;;3.70;99.90;;;;;;4954346;28;20443;-73
2022/01/21 12:28:46;;;;;;;4.97;1.80;;;3.80;99.90;;;;;;4954473;28;20420;-73
2022/01/21 12:31:15;;;;;;;10.53;2.50;;;3.70;99.90;;;;;;4953713;28;20454;-73
2022/01/21 12:33:57;;;;;;;6.73;2.40;;;3.70;99.90;;;;;;4954396;28;20407;-73
2022/01/21 12:36:31;;;;;;;8.73;2.73;;;3.70;99.90;;;;;;4953982;28;20502;-73
2022/01/21 12:41:34;;;;;;;12.63;2.43;;;3.60;99.90;;;;;;4953983;28;20449;-73
2022/01/21 12:44:08;;;;;;;3.90;1.93;;;3.70;99.90;;;;;;4954403;28;20402;-73
2022/01/21 12:46:40;;;;;;;9.27;2.83;;;3.70;99.90;;;;;;4954142;28;20400;-73
2022/01/21 12:49:29;;;;;;;8.43;2.57;;;3.70;99.90;;;;;;4953962;28;20394;-73
2022/01/21 12:52:28;;;;;;;5.80;2.63;;;3.60;99.90;;;;;;4953620;28;20483;-73
2022/01/21 12:57:29;;;;;;;4.43;2.80;;;3.50;99.90;;;;;;4953909;29;20407;-73
2022/01/21 12:59:58;;;;;;;9.60;2.47;;;3.70;99.90;;;;;;4954073;28;20416;-73
2022/01/21 13:02:26;;;;;;;4.37;2.20;;;3.70;99.90;;;;;;4955929;28;20415;-73
2022/01/21 13:05:02;;;;;;;9.77;2.03;;;3.70;99.90;;;;;;4956084;29;20458;-73
2022/01/21 13:08:10;;;;;;;5.77;2.23;;;3.70;99.90;;;;;;4955204;28;20438;-73
2022/01/21 13:10:37;;;;;;;5.03;1.77;;;3.70;99.90;;;;;;4946418;28;20486;-73
2022/01/21 13:15:38;;;;;;;4.50;1.43;;;3.80;99.90;;;;;;4954801;28;20424;-73
2022/01/21 13:18:09;;;;;;;7.73;1.67;;;3.80;99.90;;;;;;4954712;28;20395;-73
2022/01/21 13:20:38;;;;;;;10.00;2.10;;;3.70;99.90;;;;;;4954658;28;20499;-73
2022/01/21 13:23:03;;;;;;;5.50;2.17;;;3.70;99.90;;;;;;4954258;28;20425;-73
2022/01/21 13:25:31;;;;;;;6.80;2.37;;;3.70;99.90;;;;;;4956365;28;20410;-72
2022/01/21 13:27:59;;;;;;;12.23;2.53;;;3.60;99.90;;;;;;4957886;28;20217;-72
2022/01/21 13:30:30;;;;;;;6.90;2.10;;;3.70;99.90;;;;;;4957234;28;21116;-72
2022/01/21 13:33:08;;;;;;;7.37;1.70;;;3.70;99.90;;;;;;4957526;28;20414;-72
2022/01/21 13:35:36;;;;;;;11.93;2.20;;;3.70;99.90;;;;;;4957398;28;20439;-72
2022/01/21 13:38:15;;;;;;;8.33;2.07;;;3.70;99.90;;;;;;4957466;28;20396;-72
2022/01/21 13:40:57;;;;;;;2.53;0.97;;;3.70;99.90;;;;;;4957255;28;20419;-72
2022/01/21 13:43:26;;;;;;;12.20;2.67;;;3.60;99.90;;;;;;4957397;28;20431;-72
2022/01/21 13:45:59;;;;;;;2.60;1.40;;;3.60;99.90;;;;;;4957303;28;20436;-73
2022/01/21 13:48:25;;;;;;;8.33;2.27;;;3.70;99.90;;;;;;4961149;28;20431;-72
2022/01/21 13:50:51;;;;;;;7.27;2.20;;;3.70;99.90;;;;;;4974848;28;20445;-72
2022/01/21 13:53:17;;;;;;;10.80;2.20;;;3.70;99.90;;;;;;4976304;28;20395;-72
2022/01/21 13:55:51;;;;;;;5.03;1.50;;;3.80;99.90;;;;;;4975165;28;20401;-72
2022/01/21 13:58:19;;;;;;;9.33;1.83;;;3.80;99.90;;;;;;4976156;28;20591;-72
2022/01/21 14:00:50;;;;;;;5.63;1.73;;;3.80;99.90;;;;;;4976222;28;20482;-72
2022/01/21 14:03:22;;;;;;;10.80;3.77;;;3.80;99.90;;;;;;4975968;28;20444;-72
2022/01/21 14:05:58;;;;;;;7.23;2.27;;;3.80;99.90;;;;;;4976549;28;20390;-72
2022/01/21 14:08:39;;;;;;;7.70;1.67;;;3.70;99.90;;;;;;4976079;28;20427;-72
2022/01/21 14:11:10;;;;;;;9.20;2.33;;;3.70;99.90;;;;;;4970579;28;20459;-72
2022/01/21 14:13:43;;;;;;;7.63;2.50;;;3.70;99.90;;;;;;4956655;28;20421;-72
2022/01/21 14:16:11;;;;;;;8.37;2.60;;;3.80;99.90;;;;;;4963632;28;20427;-72
2022/01/21 14:18:42;;;;;;;10.03;2.47;;;3.70;99.90;;;;;;4970378;28;20435;-72
2022/01/21 14:21:20;;;;;;;5.47;2.17;;;3.80;99.90;;;;;;4966928;28;20530;-72
2022/01/21 14:23:47;;;;;;;10.13;2.43;;;3.80;99.90;;;;;;4965765;28;20891;-72
2022/01/21 14:26:21;;;;;;;7.53;2.27;;;3.80;99.90;;;;;;4959198;28;20395;-72
2022/01/21 14:28:50;;;;;;;10.27;2.37;;;3.80;99.90;;;;;;4963052;28;20394;-72
2022/01/21 14:31:26;;;;;;;9.13;2.67;;;3.80;99.90;;;;;;4966932;28;20865;-73
2022/01/21 14:33:52;;;;;;;4.10;2.10;;;3.70;99.90;;;;;;4965998;28;20765;-72
2022/01/21 14:36:17;;;;;;;3.83;1.97;;;3.70;99.90;;;;;;4965692;28;20512;-73
2022/01/21 14:38:52;;;;;;;6.77;2.40;;;3.70;99.90;;;;;;4967584;28;20180;-73
2022/01/21 14:41:26;;;;;;;5.60;1.93;;;3.80;99.90;;;;;;4972648;28;20262;-73
2022/01/21 14:43:56;;;;;;;6.47;2.27;;;3.80;99.90;;;;;;4962585;28;20445;-73
2022/01/21 14:46:26;;;;;;;20.23;2.80;;;3.70;99.90;;;;;;4967341;28;20476;-73
2022/01/21 14:48:57;;;;;;;13.03;2.47;;;3.80;99.90;;;;;;4975124;28;20424;-72
2022/01/21 14:51:33;;;;;;;6.20;1.60;;;3.80;99.90;;;;;;4966290;28;20985;-72
2022/01/21 14:54:19;;;;;;;9.23;1.80;;;3.70;99.90;;;;;;4955255;28;20398;-73
2022/01/21 14:57:00;;;;;;;15.97;2.83;;;3.80;99.90;;;;;;4973980;28;20398;-73
2022/01/21 14:59:26;;;;;;;3.80;2.20;;;3.70;99.90;;;;;;4975352;28;20401;-72
2022/01/21 15:02:10;;;;;;;8.50;1.93;;;3.60;99.90;;;;;;4967305;28;20414;-73
2022/01/21 15:04:38;;;;;;;13.23;3.17;;;3.60;99.90;;;;;;4974482;28;20488;-72
2022/01/21 15:07:13;;;;;;;8.17;2.70;;;3.70;99.90;;;;;;4974500;28;21027;-73
2022/01/21 15:09:46;;;;;;;8.20;2.10;;;3.80;99.90;;;;;;4975183;28;20509;-72
2022/01/21 15:15:27;;;;;;;3.40;1.57;;;3.90;99.90;;;;;;4963743;28;20565;-73
2022/01/21 15:17:53;;;;;;;11.07;3.20;;;3.80;99.90;;;;;;4963326;28;20475;-72
2022/01/21 15:20:24;;;;;;;5.80;1.90;;;3.80;99.90;;;;;;4968721;28;20522;-73
2022/01/21 15:22:50;;;;;;;8.03;2.30;;;3.80;99.90;;;;;;4949324;28;20402;-72
2022/01/21 15:25:15;;;;;;;2.03;1.47;;;3.70;99.90;;;;;;4971701;28;20420;-72
2022/01/21 15:27:44;;;;;;;3.10;1.93;;;3.60;99.90;;;;;;4957284;28;20292;-72
2022/01/21 15:30:10;;;;;;;6.83;2.50;;;3.60;99.90;;;;;;4955053;28;20190;-72
2022/01/21 15:32:36;;;;;;;8.03;2.07;;;3.50;99.90;;;;;;4955476;28;20793;-73
2022/01/21 15:35:03;;;;;;;6.00;2.00;;;3.50;99.90;;;;;;4955101;28;20454;-72
2022/01/21 15:37:29;;;;;;;2.17;1.77;;;3.50;99.90;;;;;;4955638;28;20583;-72
2022/01/21 15:39:55;;;;;;;5.37;1.33;;;3.50;99.90;;;;;;4963192;28;20470;-73
2022/01/21 15:42:21;;;;;;;7.50;1.63;;;3.50;99.90;;;;;;4972936;28;20201;-72
2022/01/21 15:44:47;;;;;;;5.70;2.80;;;3.40;99.90;;;;;;4974622;28;20521;-73
2022/01/21 15:47:12;;;;;;;3.23;2.00;;;3.40;99.90;;;;;;4973526;28;20236;-73
2022/01/21 15:49:40;;;;;;;5.43;2.80;;;3.40;99.90;;;;;;4966014;28;20426;-73
2022/01/21 15:52:05;;;;;;;5.83;1.70;;;3.40;99.90;;;;;;4954545;28;20205;-73
2022/01/21 15:54:31;;;;;;;8.33;2.37;;;3.30;99.90;;;;;;4954813;29;20473;-73
2022/01/21 15:56:56;;;;;;;6.83;2.53;;;3.30;99.90;;;;;;4954981;28;20177;-73
2022/01/21 15:59:24;;;;;;;10.70;2.03;;;3.20;99.90;;;;;;4953672;29;20176;-73
2022/01/21 16:01:50;;;;;;;4.80;1.80;;;3.20;99.90;;;;;;4954489;28;20216;-73
2022/01/21 16:04:16;;;;;;;11.10;2.30;;;3.20;99.90;;;;;;4954644;29;20480;-72
2022/01/21 16:06:46;;;;;;;6.90;2.10;;;3.20;99.90;;;;;;4967826;28;20467;-73
2022/01/21 16:09:12;;;;;;;6.10;2.13;;;3.20;99.90;;;;;;4968783;28;20418;-70
2022/01/21 16:11:39;;;;;;;8.33;3.77;;;3.20;99.90;;;;;;4973553;28;20502;-70
2022/01/21 16:14:05;;;;;;;3.97;2.43;;;3.10;99.90;;;;;;4973751;28;20634;-70
2022/01/21 16:16:32;;;;;;;7.13;2.63;;;3.10;99.90;;;;;;4973580;28;20426;-70
2022/01/21 16:18:57;;;;;;;4.80;2.30;;;3.10;99.90;;;;;;4972760;28;20775;-73
2022/01/21 16:21:24;;;;;;;9.30;2.77;;;3.10;99.90;;;;;;4972950;28;20413;-73
2022/01/21 16:23:50;;;;;;;4.03;1.87;;;3.10;99.90;;;;;;4973563;28;20198;-73
2022/01/21 16:26:15;;;;;;;7.53;2.30;;;3.10;99.90;;;;;;4973809;28;20393;-72
2022/01/21 16:28:41;;;;;;;8.27;1.80;;;3.10;99.90;;;;;;4973962;28;20407;-72
2022/01/21 16:31:07;;;;;;;12.00;2.00;;;3.00;99.90;;;;;;4973124;28;20214;-72
2022/01/21 16:33:32;;;;;;;4.17;2.17;;;3.00;99.90;;;;;;4973778;28;20176;-72
2022/01/21 16:35:58;;;;;;;9.17;2.70;;;3.00;99.90;;;;;;4973949;28;20184;-72
2022/01/21 16:38:24;;;;;;;9.47;2.70;;;3.00;99.90;;;;;;4974085;28;20627;-70
2022/01/21 16:40:50;;;;;;;9.03;2.47;;;3.00;99.90;;;;;;4973229;28;20494;-71
2022/01/21 16:43:16;;;;;;;12.80;2.30;;;3.00;99.90;;;;;;4973322;28;20176;-72
2022/01/21 16:45:42;;;;;;;6.63;2.40;;;3.00;99.90;;;;;;4971580;28;20183;-71
2022/01/21 16:48:08;;;;;;;3.93;1.77;;;3.00;99.90;;;;;;4965602;28;20421;-72
2022/01/21 16:50:35;;;;;;;7.57;1.70;;;3.00;99.90;;;;;;4965017;28;20452;-72
2022/01/21 16:53:01;;;;;;;8.87;2.27;;;3.00;99.90;;;;;;4969780;28;20181;-71
2022/01/21 16:55:26;;;;;;;7.40;2.10;;;2.90;99.90;;;;;;4970628;28;20406;-72
2022/01/21 16:57:53;;;;;;;13.10;1.77;;;2.90;99.90;;;;;;4971121;28;20172;-72
2022/01/21 17:00:21;;;;;;;3.83;2.10;;;2.90;99.90;;;;;;4969674;28;20263;-72
2022/01/21 17:02:46;;;;;;;6.60;2.30;;;2.90;99.90;;;;;;4969816;28;20447;-72
2022/01/21 17:05:12;;;;;;;5.53;1.97;;;2.80;99.90;;;;;;4969668;28;20462;-72
2022/01/21 17:07:38;;;;;;;7.40;2.00;;;2.80;99.90;;;;;;4969563;28;20188;-72
2022/01/21 17:10:04;;;;;;;3.33;1.73;;;2.90;99.90;;;;;;4969882;28;20209;-72
2022/01/21 17:12:30;;;;;;;6.60;2.10;;;2.90;99.90;;;;;;4970185;28;20477;-72
2022/01/21 17:14:55;;;;;;;6.00;2.50;;;2.90;99.90;;;;;;4971199;28;20438;-72
2022/01/21 17:17:21;;;;;;;11.17;2.50;;;2.90;99.90;;;;;;4970121;28;20178;-72
2022/01/21 17:19:47;;;;;;;10.80;4.63;;;2.90;99.90;;;;;;4969919;28;20192;-72
2022/01/21 17:22:14;;;;;;;7.33;2.50;;;2.90;99.90;;;;;;4970390;28;20687;-72
2022/01/21 17:24:42;;;;;;;6.03;2.10;;;2.90;99.90;;;;;;4970288;28;20423;-72
2022/01/21 17:27:09;;;;;;;8.87;2.63;;;2.90;99.90;;;;;;4970741;28;20448;-72
2022/01/21 17:29:35;;;;;;;8.20;2.57;;;2.90;99.90;;;;;;4964158;28;20866;-70
2022/01/21 17:32:02;;;;;;;9.10;3.20;;;2.90;99.90;;;;;;4959809;28;20549;-70
2022/01/21 17:34:27;;;;;;;19.47;4.53;;;2.90;99.90;;;;;;4958083;28;20425;-70
2022/01/21 17:36:54;;;;;;;7.10;3.57;;;2.90;99.90;;;;;;4951812;28;21021;-72
2022/01/21 17:39:20;;;;;;;6.67;2.83;;;2.90;99.90;;;;;;4951132;28;20195;-71
2022/01/21 17:41:46;;;;;;;8.07;3.47;;;2.90;99.90;;;;;;4950774;28;20420;-72
2022/01/21 17:44:13;;;;;;;11.87;3.60;;;2.90;99.90;;;;;;4950464;28;20464;-72
2022/01/21 17:46:42;;;;;;;7.27;3.63;;;2.90;99.90;;;;;;4953401;28;21166;-72
2022/01/21 17:49:07;;;;;;;11.97;2.73;;;2.90;99.90;;;;;;4961108;28;20997;-72
2022/01/21 17:51:33;;;;;;;5.10;2.40;;;3.00;99.90;;;;;;4963089;28;20608;-72
2022/01/21 17:53:59;;;;;;;7.63;2.47;;;2.90;99.90;;;;;;4960589;28;20188;-72
2022/01/21 17:56:25;;;;;;;4.07;2.03;;;2.90;99.90;;;;;;4969544;28;20433;-72
2022/01/21 17:58:50;;;;;;;6.73;2.23;;;2.90;99.90;;;;;;4969750;28;20555;-72
2022/01/21 18:01:16;;;;;;;2.53;1.90;;;2.90;99.90;;;;;;4970301;28;20207;-72
2022/01/21 18:03:41;;;;;;;10.90;2.07;;;2.90;99.90;;;;;;4971884;28;20184;-72
2022/01/21 18:06:07;;;;;;;5.27;2.77;;;2.90;99.90;;;;;;4973224;28;20209;-72
2022/01/21 18:08:35;;;;;;;8.93;3.33;;;2.90;99.90;;;;;;4973633;28;20191;-72
2022/01/21 18:11:11;;;;;;;8.13;1.83;;;2.90;99.90;;;;;;4974684;28;20798;-72
2022/01/21 18:13:37;;;;;;;4.40;2.17;;;2.90;99.90;;;;;;4975996;28;20389;-72